Guaratinga, Brazil
Current Conditions -  °F | °C
As of 10:00 AM on Thursday 23 Oct 2014 (Local Time) from SBPS Reporting Station
Rain Showers Rain Showers  
Wind Chill: 73°   Ceiling: 2000
Heat Index: NA   Visibility: 6mi
Dew Point: NA   Wind: 7mph
Humidity: NA   Direction: 170°S
Pressure: 30.12"   Gusts: NA
Location:  16.58°S, 39.78°W
Report Text: SBPS 231300Z 17006KT 090V230 9000 VCSH SCT012 BKN020 OVC070 23/19 Q1020
Loading
Personal Weather Stations






























Interactive Weather Map
Tropical Storm Tracking
New forecast layout! Learn more

10-Day Weather Forecast

Advertisements
Track Severe Weather on mobile